Terminal Aerodrome Forecast
Issued by NWS

Home | Current Version | Previous Version | Text Only | Print | Product List | Glossary On
Versions: 1 2 3 4 5 6 7 8 9 10 11 12 13 14
088
FTUS46 KMFR 271141
TAFRBG
TAF
KRBG 271141Z 2712/2812 00000KT P6SM -RA OVC035
     FM271700 17007KT P6SM VCSH SCT030 OVC040
     FM272300 34006KT P6SM BKN045
     FM280300 00000KT P6SM SCT040 BKN100=

USA.gov is the U.S. government's official web portal to all federal, state and local government web resources and services.